Time;durP1;ratioP1;P1;durP2;ratioP2;P2;SDS_P1;SDS_P2;PMS_P1;PMS_P2;Temp;Humidity;BMP_temperature;BMP_pressure;BME280_temperature;BME280_humidity;BME280_pressure;Samples;Min_cycle;Max_cycle;Signal;HPM_P1;HPM_P2
2021/08/15 00:03:01;;;;;;;23.52;15.60;;;;;;;18.14;67.64;100271.23;2147988;82;29856;-62
2021/08/15 00:06:03;;;;;;;23.70;16.07;;;;;;;18.14;67.64;100271.23;2071987;85;32177;-62
2021/08/15 00:09:06;;;;;;;21.35;15.30;;;;;;;18.12;67.42;100278.63;2073135;85;34212;-62
2021/08/15 00:12:08;;;;;;;23.77;15.68;;;;;;;18.10;67.38;100275.17;2073695;85;30216;-62
2021/08/15 00:15:12;;;;;;;19.35;14.93;;;;;;;18.07;67.44;100273.59;2044925;85;27757;-61
2021/08/15 00:18:14;;;;;;;21.10;15.32;;;;;;;18.05;67.54;100265.56;2073755;82;29701;-61
2021/08/15 00:21:17;;;;;;;21.42;14.45;;;;;;;18.04;67.49;100269.26;2135947;82;31849;-61
2021/08/15 00:24:22;;;;;;;24.12;15.20;;;;;;;18.02;67.71;100269.03;2108587;83;34162;-61
2021/08/15 00:27:24;;;;;;;19.25;15.03;;;;;;;17.83;67.83;100244.74;2108550;84;29346;-61
2021/08/15 00:30:26;;;;;;;23.90;14.93;;;;;;;17.83;67.83;100244.74;2132672;82;27656;-61
2021/08/15 00:33:28;;;;;;;24.02;14.50;;;;;;;17.88;67.50;100260.15;2151236;82;29939;-61
2021/08/15 00:36:31;;;;;;;20.12;14.63;;;;;;;17.88;67.50;100260.15;2151306;81;32286;-62
2021/08/15 00:39:33;;;;;;;19.00;13.80;;;;;;;17.71;67.76;100241.68;2140062;82;33476;-61
2021/08/15 00:42:35;;;;;;;21.12;13.28;;;;;;;17.71;67.76;100241.68;2108729;84;29962;-61
2021/08/15 00:45:39;;;;;;;19.12;14.58;;;;;;;17.80;67.87;100264.46;2108681;83;27656;-61
2021/08/15 00:48:42;;;;;;;20.75;13.35;;;;;;;17.73;68.48;100254.62;2108487;83;28745;-61
2021/08/15 00:51:45;;;;;;;23.15;13.75;;;;;;;17.73;68.48;100254.62;2150723;82;31170;-61
2021/08/15 00:54:48;;;;;;;21.97;14.05;;;;;;;17.71;68.71;100249.81;2151522;82;33949;-61
2021/08/15 00:57:50;;;;;;;17.25;13.10;;;;;;;17.68;68.56;100247.34;2151352;82;29468;-61
2021/08/15 01:00:52;;;;;;;19.32;13.58;;;;;;;17.48;68.68;100225.42;2127044;82;27691;-61
2021/08/15 01:03:54;;;;;;;22.40;13.45;;;;;;;17.44;68.98;100227.52;2108105;83;29899;-61
2021/08/15 01:06:57;;;;;;;19.50;12.88;;;;;;;17.44;68.98;100227.52;2107509;83;31071;-61
2021/08/15 01:10:00;;;;;;;16.23;12.75;;;;;;;17.51;68.68;100243.30;2107980;82;33279;-62
2021/08/15 01:13:05;;;;;;;22.42;12.85;;;;;;;17.51;68.68;100243.30;2108031;84;28006;-61
2021/08/15 01:16:12;;;;;;;19.67;13.45;;;;;;;17.43;68.76;100235.27;2104711;83;27612;-61
2021/08/15 01:19:15;;;;;;;18.02;11.95;;;;;;;17.43;68.76;100235.27;2111142;82;28822;-61
2021/08/15 01:22:18;;;;;;;26.82;13.35;;;;;;;17.39;68.82;100237.84;2150711;82;32510;-62
2021/08/15 01:25:20;;;;;;;18.98;13.03;;;;;;;17.36;68.73;100230.47;2151204;82;33808;-61
2021/08/15 01:28:23;;;;;;;17.12;12.85;;;;;;;17.31;68.91;100234.39;2151553;82;30124;-61
2021/08/15 01:31:27;;;;;;;19.85;13.13;;;;;;;17.28;69.08;100233.78;2114453;82;27699;-61
2021/08/15 01:34:29;;;;;;;18.17;12.37;;;;;;;17.22;68.99;100233.78;2108805;82;29505;-61
2021/08/15 01:37:32;;;;;;;16.00;12.60;;;;;;;17.19;68.98;100234.53;2108347;84;31130;-61
2021/08/15 01:40:34;;;;;;;21.27;13.25;;;;;;;17.15;69.06;100233.41;2108250;84;34258;-61
2021/08/15 01:43:52;;;;;;;17.60;12.80;;;;;;;17.13;69.24;100237.20;2108862;83;30018;-61
2021/08/15 01:47:02;;;;;;;21.05;13.78;;;;;;;17.09;69.44;100237.09;2146338;82;27558;-61
2021/08/15 01:50:10;;;;;;;23.02;15.28;;;;;;;17.05;69.74;100244.56;2151548;82;28751;-61
2021/08/15 01:53:16;;;;;;;22.32;13.20;;;;;;;17.00;70.02;100246.28;2151848;82;31039;-61
2021/08/15 01:56:19;;;;;;;22.93;14.30;;;;;;;16.95;70.01;100242.21;2151389;82;33665;-62
2021/08/15 01:59:21;;;;;;;22.58;14.18;;;;;;;16.90;69.99;100237.61;2149293;82;29339;-61
2021/08/15 02:02:23;;;;;;;22.42;13.78;;;;;;;16.84;70.10;100232.19;2151660;82;27669;-61
2021/08/15 02:05:26;;;;;;;21.37;15.65;;;;;;;16.84;70.10;100232.19;2150660;82;28644;-67
2021/08/15 02:08:27;;;;;;;19.55;13.65;;;;;;;16.80;70.23;100241.03;2141800;83;31066;-61
2021/08/15 02:11:29;;;;;;;18.20;12.63;;;;;;;16.75;70.20;100235.11;2141983;83;34124;-61
2021/08/15 02:14:32;;;;;;;20.85;13.00;;;;;;;16.71;70.32;100234.99;2138718;83;30187;-61
2021/08/15 02:17:33;;;;;;;17.40;12.70;;;;;;;16.67;70.28;100236.20;2097171;83;27724;-61
2021/08/15 02:20:37;;;;;;;19.90;13.83;;;;;;;16.63;70.34;100231.49;2095287;84;29905;-61
2021/08/15 02:23:39;;;;;;;21.37;14.33;;;;;;;16.62;70.32;100231.62;2096188;84;31739;-61
2021/08/15 02:26:41;;;;;;;21.27;13.75;;;;;;;16.59;70.42;100227.80;2095637;84;34189;-61
2021/08/15 02:29:43;;;;;;;20.55;14.20;;;;;;;16.54;70.45;100220.91;2096319;84;30332;-61
2021/08/15 02:32:45;;;;;;;21.20;14.60;;;;;;;16.50;70.44;100214.48;2096452;84;27689;-61
2021/08/15 02:35:47;;;;;;;20.20;13.68;;;;;;;16.46;70.43;100217.07;2096327;84;29512;-61
2021/08/15 02:38:49;;;;;;;21.02;14.25;;;;;;;16.42;70.51;100212.86;2096742;84;31787;-62
2021/08/15 02:41:51;;;;;;;17.87;13.28;;;;;;;16.38;70.40;100216.30;2096588;84;33416;-60
2021/08/15 02:44:53;;;;;;;20.70;14.70;;;;;;;16.35;70.50;100217.88;2102824;83;30523;-60
2021/08/15 02:47:55;;;;;;;20.75;14.05;;;;;;;16.31;70.66;100215.87;2142485;83;27634;-60
2021/08/15 02:50:57;;;;;;;19.20;13.25;;;;;;;16.30;70.85;100217.34;2141986;83;29091;-61
2021/08/15 02:53:59;;;;;;;19.95;14.25;;;;;;;16.25;70.67;100219.90;2142115;83;31007;-60
2021/08/15 02:57:02;;;;;;;19.70;13.72;;;;;;;16.22;70.71;100221.48;2142414;83;33665;-60
2021/08/15 03:00:06;;;;;;;21.30;14.00;;;;;;;16.20;70.85;100213.12;2142116;83;28952;-61
2021/08/15 03:03:08;;;;;;;21.62;14.15;;;;;;;16.17;70.94;100214.22;2142171;83;27641;-61
2021/08/15 03:06:10;;;;;;;17.77;13.03;;;;;;;16.15;70.94;100217.52;2140590;83;29876;-61
2021/08/15 03:09:12;;;;;;;22.60;13.15;;;;;;;16.09;71.15;100216.15;2136256;82;31110;-61
2021/08/15 03:12:14;;;;;;;18.52;14.15;;;;;;;16.09;71.15;100216.15;2135476;83;34400;-61
2021/08/15 03:15:16;;;;;;;17.32;13.78;;;;;;;16.07;71.34;100212.69;2136259;82;30542;-61
2021/08/15 03:18:18;;;;;;;18.23;12.82;;;;;;;16.05;71.23;100209.23;2142048;83;27616;-61
2021/08/15 03:21:20;;;;;;;22.85;14.33;;;;;;;16.03;71.21;100204.94;2141797;83;28454;-61
2021/08/15 03:24:21;;;;;;;16.93;12.10;;;;;;;15.99;71.57;100201.58;2141598;83;31237;-61
2021/08/15 03:27:23;;;;;;;18.50;13.35;;;;;;;15.99;71.57;100200.22;2141822;83;34044;-61
2021/08/15 03:30:25;;;;;;;16.97;12.43;;;;;;;15.97;71.60;100193.22;2141918;83;30631;-61
2021/08/15 03:33:27;;;;;;;18.52;13.78;;;;;;;15.96;71.70;100186.97;2142128;83;27601;-60
2021/08/15 03:36:28;;;;;;;21.65;14.87;;;;;;;15.95;71.87;100186.09;2141919;83;29900;-61
2021/08/15 03:39:30;;;;;;;20.97;15.13;;;;;;;15.97;71.83;100191.86;2141528;83;31977;-61
2021/08/15 03:42:32;;;;;;;22.17;14.80;;;;;;;15.97;72.02;100190.02;2141864;83;33094;-61
2021/08/15 03:45:38;;;;;;;20.62;15.38;;;;;;;15.99;72.02;100190.77;2119379;83;29723;-61
2021/08/15 03:48:38;;;;;;;22.37;16.20;;;;;;;16.00;72.02;100196.55;2096178;83;28237;-61
2021/08/15 03:51:40;;;;;;;19.98;14.68;;;;;;;16.01;71.99;100198.27;2095662;84;28762;-61
2021/08/15 03:54:42;;;;;;;27.65;15.45;;;;;;;16.02;72.04;100198.65;2095533;84;32363;-61
2021/08/15 03:57:44;;;;;;;21.87;15.10;;;;;;;16.03;72.18;100192.77;2096773;84;34046;-61
2021/08/15 04:00:46;;;;;;;23.30;15.78;;;;;;;16.04;72.29;100191.30;2106406;83;30517;-61
2021/08/15 04:03:47;;;;;;;25.57;14.73;;;;;;;16.06;72.23;100196.10;2142427;83;27709;-61
2021/08/15 04:06:49;;;;;;;20.43;14.35;;;;;;;16.09;72.34;100195.88;2141749;83;29972;-61
2021/08/15 04:09:51;;;;;;;20.27;16.00;;;;;;;16.13;72.46;100188.90;2104306;83;31428;-60
2021/08/15 04:12:53;;;;;;;19.75;15.45;;;;;;;16.17;72.46;100187.20;2096672;84;32757;-61
2021/08/15 04:15:55;;;;;;;22.22;15.32;;;;;;;16.23;72.54;100197.52;2096320;83;29863;-61
2021/08/15 04:18:57;;;;;;;20.15;15.48;;;;;;;16.27;72.58;100192.77;2096934;84;27762;-60
2021/08/15 04:21:59;;;;;;;19.07;14.68;;;;;;;16.34;72.56;100183.70;2096601;83;29046;-61
2021/08/15 04:25:01;;;;;;;23.22;15.78;;;;;;;16.40;72.80;100191.33;2096574;84;32277;-61
2021/08/15 04:28:04;;;;;;;17.87;14.18;;;;;;;16.47;72.68;100191.72;2096651;84;34105;-61
2021/08/15 04:31:06;;;;;;;20.43;14.47;;;;;;;16.54;72.78;100200.63;2096477;84;30126;-61
2021/08/15 04:34:08;;;;;;;20.80;14.80;;;;;;;16.62;72.64;100207.28;2096546;84;27687;-61
2021/08/15 04:37:09;;;;;;;21.55;15.72;;;;;;;16.69;72.65;100200.43;2098371;83;30033;-61
2021/08/15 04:40:12;;;;;;;20.65;15.83;;;;;;;16.77;72.52;100202.55;2096518;83;31046;-61
2021/08/15 04:43:14;;;;;;;24.80;16.77;;;;;;;16.85;72.47;100196.91;2096547;84;33898;-61
2021/08/15 04:46:16;;;;;;;26.45;16.87;;;;;;;16.94;72.42;100207.51;2096396;83;29583;-61
2021/08/15 04:49:18;;;;;;;20.70;16.42;;;;;;;17.03;72.37;100201.02;2096762;83;27688;-61
2021/08/15 04:52:20;;;;;;;22.58;16.30;;;;;;;17.15;72.33;100197.34;2096578;84;28890;-61
2021/08/15 04:55:22;;;;;;;22.90;16.57;;;;;;;17.27;72.32;100203.63;2096531;84;31882;-61
2021/08/15 04:58:23;;;;;;;20.65;15.93;;;;;;;17.50;72.43;100222.61;2096439;84;34252;-61
2021/08/15 05:01:25;;;;;;;22.95;15.88;;;;;;;18.00;72.48;100226.27;2096252;84;30298;-61
2021/08/15 05:04:27;;;;;;;20.77;15.48;;;;;;;18.57;71.93;100208.47;2096579;84;27727;-61
2021/08/15 05:07:29;;;;;;;27.00;17.40;;;;;;;19.17;71.22;100218.77;2088752;84;29867;-61
2021/08/15 05:10:31;;;;;;;22.13;15.85;;;;;;;19.67;70.36;100209.86;2103670;84;32406;-61
2021/08/15 05:13:32;;;;;;;21.00;15.38;;;;;;;20.13;69.53;100211.63;2104178;84;34134;-61
2021/08/15 05:16:35;;;;;;;20.72;14.10;;;;;;;20.46;68.77;100217.68;2103778;84;30481;-61
2021/08/15 05:19:36;;;;;;;17.57;14.43;;;;;;;20.72;68.24;100215.24;2103887;84;27630;-61
2021/08/15 05:22:38;;;;;;;21.27;15.38;;;;;;;20.94;67.29;100219.55;2104448;84;29026;-61
2021/08/15 05:25:41;;;;;;;17.60;14.00;;;;;;;21.11;66.99;100212.98;2104028;84;32248;-61
2021/08/15 05:28:43;;;;;;;27.45;15.20;;;;;;;21.35;66.51;100216.58;2104019;84;34330;-61
2021/08/15 05:31:46;;;;;;;22.75;15.65;;;;;;;21.56;65.85;100211.41;2104068;84;30189;-61
2021/08/15 05:34:48;;;;;;;22.35;15.63;;;;;;;21.73;65.44;100213.02;2104454;84;28178;-61
2021/08/15 05:37:50;;;;;;;19.27;14.95;;;;;;;21.91;64.89;100211.72;2097601;84;28703;-61
2021/08/15 05:40:53;;;;;;;19.95;15.10;;;;;;;22.12;64.56;100212.28;2071597;84;31225;-62
2021/08/15 05:43:55;;;;;;;21.52;16.10;;;;;;;22.34;64.24;100209.29;2071954;84;33039;-62
2021/08/15 05:46:58;;;;;;;23.87;14.30;;;;;;;22.56;63.77;100204.73;2071958;84;29724;-62
2021/08/15 05:50:01;;;;;;;20.82;14.93;;;;;;;22.79;63.26;100204.26;2072235;84;28145;-62
2021/08/15 05:53:03;;;;;;;24.02;15.00;;;;;;;23.01;62.59;100199.27;2071600;85;28685;-63
2021/08/15 05:56:04;;;;;;;20.12;14.45;;;;;;;23.24;62.46;100191.45;2071879;84;31840;-62
2021/08/15 05:59:06;;;;;;;18.75;13.83;;;;;;;23.46;61.45;100189.16;2071666;84;33471;-63
2021/08/15 06:02:09;;;;;;;19.50;14.78;;;;;;;23.66;60.96;100191.16;2072067;84;29764;-62
2021/08/15 06:05:15;;;;;;;19.95;14.20;;;;;;;23.95;61.14;100187.14;2051375;85;27745;-62
2021/08/15 06:08:17;;;;;;;18.10;13.80;;;;;;;24.31;60.73;100192.89;2087384;84;28507;-62
2021/08/15 06:11:19;;;;;;;21.30;12.85;;;;;;;24.68;60.28;100184.17;2104412;84;31061;-62
2021/08/15 06:14:20;;;;;;;26.73;12.98;;;;;;;25.05;59.52;100187.95;2104047;84;33390;-64
2021/08/15 06:17:23;;;;;;;18.10;13.40;;;;;;;25.42;58.66;100187.90;2103920;82;30552;-59
2021/08/15 06:20:24;;;;;;;18.00;12.78;;;;;;;25.89;58.37;100187.01;2104403;84;27614;-62
2021/08/15 06:23:26;;;;;;;18.73;12.33;;;;;;;26.37;57.38;100184.18;2104133;84;29894;-67
2021/08/15 06:26:29;;;;;;;14.33;11.85;;;;;;;26.91;56.68;100182.36;2103859;84;32423;-68
2021/08/15 06:29:31;;;;;;;21.68;12.10;;;;;;;27.47;55.85;100191.29;2104190;84;33210;-65
2021/08/15 06:32:33;;;;;;;14.13;10.58;;;;;;;28.11;55.28;100190.63;2104311;84;29346;-62
2021/08/15 06:35:34;;;;;;;14.55;10.45;;;;;;;28.75;54.12;100190.34;2104115;84;27765;-62
2021/08/15 06:38:36;;;;;;;14.73;11.70;;;;;;;29.46;53.06;100183.55;2056612;84;29619;-63
2021/08/15 06:41:38;;;;;;;15.88;11.10;;;;;;;30.04;51.78;100186.48;2022190;86;31115;-69
2021/08/15 06:44:40;;;;;;;14.58;10.98;;;;;;;30.59;51.15;100190.03;2099175;84;33017;-65
2021/08/15 06:47:41;;;;;;;13.10;10.23;;;;;;;31.16;50.06;100198.45;2100649;84;29359;-63
2021/08/15 06:50:43;;;;;;;17.15;10.40;;;;;;;31.68;49.40;100200.78;2101661;83;27551;-63
2021/08/15 06:53:45;;;;;;;15.75;10.98;;;;;;;32.26;48.26;100200.48;2101655;84;28623;-62
2021/08/15 06:56:47;;;;;;;13.15;11.35;;;;;;;32.78;47.54;100202.22;2101472;83;31972;-63
2021/08/15 06:59:49;;;;;;;14.23;10.20;;;;;;;33.13;45.93;100201.73;2101442;83;33025;-62
2021/08/15 07:02:51;;;;;;;12.75;11.10;;;;;;;33.38;45.54;100206.97;2101431;84;29338;-63
2021/08/15 07:05:53;;;;;;;15.30;11.12;;;;;;;33.73;44.56;100204.97;2101496;83;27678;-63
2021/08/15 07:08:54;;;;;;;16.37;10.18;;;;;;;33.99;43.63;100205.77;2104346;83;29616;-63
2021/08/15 07:11:56;;;;;;;14.83;9.45;;;;;;;34.26;42.57;100209.00;2106698;83;31123;-64
2021/08/15 07:14:59;;;;;;;12.13;8.93;;;;;;;34.43;41.57;100211.14;2085053;84;33232;-63
2021/08/15 07:18:02;;;;;;;13.55;9.03;;;;;;;34.53;40.58;100210.05;2057941;85;29378;-64
2021/08/15 07:21:04;;;;;;;14.15;9.10;;;;;;;34.63;40.30;100211.69;2058478;86;27742;-64
2021/08/15 07:24:05;;;;;;;10.85;8.63;;;;;;;34.71;39.68;100206.32;2058717;85;29493;-64
2021/08/15 07:27:07;;;;;;;12.78;9.28;;;;;;;34.79;39.24;100205.98;2058593;85;31065;-64
2021/08/15 07:30:10;;;;;;;13.38;9.00;;;;;;;35.13;39.42;100206.81;2058463;86;33163;-66
2021/08/15 07:33:12;;;;;;;13.45;8.93;;;;;;;35.35;37.66;100202.87;2058875;85;29316;-71
2021/08/15 07:36:16;;;;;;;16.55;8.98;;;;;;;35.52;37.92;100205.80;2058525;85;27695;-65
2021/08/15 07:39:18;;;;;;;9.58;8.03;;;;;;;35.68;37.30;100205.57;2102223;84;29361;-66
2021/08/15 07:42:20;;;;;;;17.05;9.03;;;;;;;35.75;36.32;100209.61;2106463;83;31420;-65
2021/08/15 07:45:25;;;;;;;10.05;8.35;;;;;;;35.83;36.63;100204.20;2106530;84;32962;-62
2021/08/15 07:48:28;;;;;;;12.33;7.33;;;;;;;36.15;36.19;100203.78;2108741;84;27788;-63
2021/08/15 07:51:30;;;;;;;11.55;7.95;;;;;;;36.44;35.33;100198.17;2106676;84;27820;-63
2021/08/15 07:54:32;;;;;;;11.30;7.75;;;;;;;36.54;34.96;100204.52;2105919;84;28801;-63
2021/08/15 07:57:34;;;;;;;9.90;7.45;;;;;;;36.69;34.28;100205.31;2106320;84;31010;-62
2021/08/15 08:00:35;;;;;;;10.25;8.15;;;;;;;36.64;34.35;100202.76;2106606;84;33804;-63
2021/08/15 08:03:47;;;;;;;10.80;7.35;;;;;;;36.87;33.88;100198.66;2106100;84;30468;-65
2021/08/15 08:06:57;;;;;;;8.88;6.80;;;;;;;36.99;33.57;100188.27;1949033;90;27777;-65
2021/08/15 08:09:58;;;;;;;;;;;;;;;37.18;33.22;100190.22;1948235;91;28695;-64
2021/08/15 08:13:00;;;;;;;8.58;7.58;;;;;;;37.28;32.61;100188.69;1947434;91;31945;-63
2021/08/15 08:16:02;;;;;;;11.20;7.83;;;;;;;37.22;31.95;100182.19;1947364;91;33219;-65
2021/08/15 08:19:03;;;;;;;7.85;6.87;;;;;;;37.15;31.51;100187.09;1950389;91;29417;-63
2021/08/15 08:22:05;;;;;;;9.80;7.08;;;;;;;37.04;31.79;100186.95;1953361;91;27710;-65
2021/08/15 08:25:08;;;;;;;9.50;6.80;;;;;;;37.03;31.79;100181.07;1953902;91;28646;-63
2021/08/15 08:28:11;;;;;;;10.03;6.67;;;;;;;37.14;31.38;100184.01;1953002;91;31308;-64
2021/08/15 08:31:12;;;;;;;10.63;6.58;;;;;;;37.09;31.04;100187.02;1933435;91;33162;-63
2021/08/15 08:34:14;;;;;;;8.85;5.92;;;;;;;37.06;30.55;100183.36;1953808;91;29505;-63
2021/08/15 08:37:18;;;;;;;8.35;6.20;;;;;;;36.97;30.40;100182.65;1959364;89;27744;-64
2021/08/15 08:40:20;;;;;;;;;;;;;;;36.97;31.19;100184.88;1993130;89;28583;-64
2021/08/15 08:43:22;;;;;;;7.20;6.42;;;;;;;37.02;30.21;100183.56;2004754;86;31206;-65
2021/08/15 08:46:25;;;;;;;7.20;6.42;;;;;;;36.84;30.42;100183.80;2038906;87;33773;-73
2021/08/15 08:49:27;;;;;;;8.08;7.12;;;;;;;36.64;30.48;100177.64;2038845;87;29583;-65
2021/08/15 08:52:31;;;;;;;9.20;6.65;;;;;;;36.54;30.99;100178.84;2039096;87;27820;-66
2021/08/15 08:55:33;;;;;;;;;;;;;;;36.58;30.49;100180.56;2041558;87;29710;-68
2021/08/15 08:58:36;;;;;;;8.05;6.33;;;;;;;36.21;30.68;100170.69;2039018;86;31201;-64
2021/08/15 09:01:42;;;;;;;11.10;6.33;;;;;;;35.82;30.87;100173.27;2039176;86;34281;-68
2021/08/15 09:04:44;;;;;;;8.08;5.50;;;;;;;35.52;30.99;100170.97;2144515;82;29393;-61
2021/08/15 09:07:50;;;;;;;8.20;5.97;;;;;;;35.14;30.93;100170.39;2132180;82;27729;-61
2021/08/15 09:10:52;;;;;;;10.23;6.50;;;;;;;34.90;31.41;100164.48;2108958;84;28722;-60
2021/08/15 09:14:06;;;;;;;8.85;5.70;;;;;;;34.78;31.71;100163.07;2108504;84;31722;-61
2021/08/15 09:17:09;;;;;;;11.25;5.12;;;;;;;34.62;31.97;100163.25;2108661;84;33939;-60
2021/08/15 09:20:16;;;;;;;6.17;5.58;;;;;;;34.37;32.00;100162.32;2108702;84;30165;-61
2021/08/15 09:23:31;;;;;;;7.53;5.53;;;;;;;34.31;32.79;100160.48;2119492;82;27271;-63
2021/08/15 09:26:33;;;;;;;10.38;6.22;;;;;;;34.29;32.43;100157.64;2112912;82;28285;-60
2021/08/15 09:29:35;;;;;;;7.40;5.97;;;;;;;34.00;32.47;100153.26;2111232;82;30642;-65
2021/08/15 09:32:48;;;;;;;10.13;6.20;;;;;;;33.86;33.04;100152.00;2125326;82;34117;-62
2021/08/15 09:35:51;;;;;;;7.40;4.42;;;;;;;33.75;33.08;100152.27;2135617;82;29449;-61
2021/08/15 09:38:56;;;;;;;7.43;5.30;;;;;;;33.68;33.39;100153.41;2110097;82;27772;-61
2021/08/15 09:41:58;;;;;;;8.45;5.45;;;;;;;33.65;33.06;100156.13;2109173;82;28636;-61
2021/08/15 09:45:00;;;;;;;6.87;4.95;;;;;;;33.56;32.99;100150.59;2110910;82;31457;-60
2021/08/15 09:48:28;;;;;;;5.58;4.72;;;;;;;33.32;32.99;100153.17;2111001;82;34204;-61
2021/08/15 09:51:27;;;;;;;12.30;5.58;;;;;;;33.13;33.61;100150.94;2113065;82;29340;-61
2021/08/15 09:54:32;;;;;;;5.87;4.05;;;;;;;33.02;33.80;100147.81;2146155;82;27795;-61
2021/08/15 09:57:36;;;;;;;6.00;5.17;;;;;;;32.76;33.86;100148.92;2127709;82;29323;-61
2021/08/15 10:00:37;;;;;;;;;;;;;;;32.62;33.96;100140.38;2148249;83;31855;-62
2021/08/15 10:03:41;;;;;;;7.33;4.05;;;;;;;32.40;34.05;100140.22;2117384;83;34164;-61
2021/08/15 10:06:46;;;;;;;6.90;5.12;;;;;;;32.24;34.66;100136.58;2108358;83;30255;-61
2021/08/15 10:09:49;;;;;;;6.87;4.60;;;;;;;32.12;34.47;100137.83;2083277;84;27757;-61
2021/08/15 10:12:51;;;;;;;7.00;4.70;;;;;;;31.94;34.65;100127.50;2080138;84;29966;-62
2021/08/15 10:16:06;;;;;;;3.52;3.22;;;;;;;31.74;34.42;100129.84;2079212;84;31442;-62
2021/08/15 10:19:16;;;;;;;8.50;6.60;;;;;;;31.67;34.94;100123.47;2086889;84;33019;-61
2021/08/15 10:22:30;;;;;;;7.37;4.30;;;;;;;31.66;35.06;100114.84;2093584;84;30591;-61
2021/08/15 10:25:38;;;;;;;4.85;4.25;;;;;;;31.64;34.96;100118.36;2097031;84;27635;-61
2021/08/15 10:28:41;;;;;;;6.80;4.12;;;;;;;31.52;35.38;100109.34;2085380;84;29815;-61
2021/08/15 10:32:09;;;;;;;7.27;3.80;;;;;;;31.39;35.20;100109.95;2071703;84;31933;-61
2021/08/15 10:35:13;;;;;;;4.87;4.15;;;;;;;31.22;35.39;100107.11;2027294;85;33380;-63
2021/08/15 10:38:29;;;;;;;6.55;3.70;;;;;;;31.09;35.67;100105.73;2026308;86;30450;-61
2021/08/15 10:41:49;;;;;;;9.68;4.40;;;;;;;30.91;35.94;100110.03;2060066;86;27822;-61
2021/08/15 10:45:08;;;;;;;7.17;4.95;;;;;;;30.76;35.79;100109.41;2058114;86;28735;-61
2021/08/15 10:48:20;;;;;;;5.95;5.05;;;;;;;30.60;35.65;100099.66;2029906;86;45462;-60
2021/08/15 10:51:50;;;;;;;7.37;4.50;;;;;;;30.52;36.20;100098.45;2048930;86;34218;-61
2021/08/15 10:54:59;;;;;;;5.83;4.70;;;;;;;30.44;36.25;100100.89;2069817;86;29567;-68
2021/08/15 10:58:00;;;;;;;5.33;4.33;;;;;;;30.30;36.65;100097.27;2030835;87;27760;-61
2021/08/15 11:01:02;;;;;;;8.15;5.03;;;;;;;30.19;37.05;100090.99;2012160;87;29066;-61
2021/08/15 11:04:04;;;;;;;9.83;5.00;;;;;;;30.09;36.75;100088.64;1960796;89;31451;-64
2021/08/15 11:07:06;;;;;;;11.33;4.92;;;;;;;30.03;37.05;100088.12;1993307;88;32944;-64
2021/08/15 11:10:12;;;;;;;9.18;3.98;;;;;;;30.05;37.06;100077.68;1967776;88;29188;-64
2021/08/15 11:13:18;;;;;;;17.75;5.72;;;;;;;30.05;37.34;100084.59;2020621;87;28134;-62
2021/08/15 11:16:31;;;;;;;5.00;3.85;;;;;;;30.04;37.42;100077.36;2021761;87;28674;-61
2021/08/15 11:19:33;;;;;;;4.28;3.85;;;;;;;30.02;37.53;100070.67;2039231;86;32339;-61
2021/08/15 11:22:35;;;;;;;8.35;3.87;;;;;;;30.03;37.88;100068.23;2067872;86;34029;-62
2021/08/15 11:25:37;;;;;;;5.22;3.42;;;;;;;30.00;37.82;100062.61;2067858;86;30283;-62
2021/08/15 11:28:40;;;;;;;4.67;3.65;;;;;;;29.99;38.23;100060.04;2067958;86;27704;-62
2021/08/15 11:31:41;;;;;;;4.17;3.60;;;;;;;30.02;37.74;100059.62;2067871;86;28442;-61
2021/08/15 11:34:59;;;;;;;6.15;3.27;;;;;;;30.04;37.55;100058.02;2047392;85;31396;-63
2021/08/15 11:38:01;;;;;;;4.12;3.60;;;;;;;30.05;36.75;100051.44;2029959;86;33793;-62
2021/08/15 11:41:03;;;;;;;4.65;3.45;;;;;;;30.06;36.64;100050.37;2033878;86;29407;-62
2021/08/15 11:44:05;;;;;;;5.33;3.62;;;;;;;30.07;36.47;100054.84;2013120;86;28093;-61
2021/08/15 11:47:24;;;;;;;5.10;3.83;;;;;;;30.10;36.23;100045.62;2021728;88;29921;-62
2021/08/15 11:50:26;;;;;;;4.15;3.50;;;;;;;30.15;36.02;100039.45;1956030;90;31904;-62
2021/08/15 11:53:34;;;;;;;3.70;3.33;;;;;;;30.19;35.95;100037.98;1990847;87;32807;-60
2021/08/15 11:56:35;;;;;;;4.62;3.10;;;;;;;30.24;35.70;100038.16;1989236;88;29336;-60
2021/08/15 11:59:44;;;;;;;3.27;2.98;;;;;;;30.29;35.97;100036.14;1989251;87;27820;-60
2021/08/15 12:03:19;;;;;;;4.35;3.25;;;;;;;30.35;35.90;100035.30;1989405;87;28653;-61
2021/08/15 12:06:21;;;;;;;4.28;3.83;;;;;;;30.41;36.37;100041.88;1988133;89;31877;-61
2021/08/15 12:09:33;;;;;;;4.70;4.30;;;;;;;30.45;36.23;100030.72;1980961;87;33100;-61
2021/08/15 12:12:31;;;;;;;4.85;3.47;;;;;;;30.47;35.44;100029.98;2028724;86;29521;-62
2021/08/15 12:15:33;;;;;;;4.90;4.12;;;;;;;30.49;35.57;100034.77;2027900;86;28192;-61
2021/08/15 12:18:40;;;;;;;5.45;3.17;;;;;;;30.55;35.62;100031.16;1995072;86;29871;-61
2021/08/15 12:21:42;;;;;;;3.30;3.00;;;;;;;30.58;35.08;100029.90;2030184;87;31042;-61
2021/08/15 12:24:45;;;;;;;4.60;3.80;;;;;;;30.67;35.74;100030.52;2032308;84;33393;-60
2021/08/15 12:27:48;;;;;;;3.67;3.37;;;;;;;30.76;35.80;100027.83;2094249;84;30098;-61
2021/08/15 12:30:50;;;;;;;4.95;3.85;;;;;;;30.80;35.66;100021.32;2095647;84;27748;-61
2021/08/15 12:34:11;;;;;;;5.97;4.50;;;;;;;30.85;35.86;100016.86;2094856;84;29144;-60
2021/08/15 12:37:19;;;;;;;4.15;3.22;;;;;;;30.93;35.58;100018.55;2096272;84;31858;-61
2021/08/15 12:40:29;;;;;;;4.28;3.87;;;;;;;30.98;35.99;100011.80;2095799;84;33533;-61
2021/08/15 12:43:31;;;;;;;4.80;3.80;;;;;;;31.01;35.24;100018.28;2095171;84;29320;-61
2021/08/15 12:46:33;;;;;;;5.92;4.20;;;;;;;31.08;35.88;100008.58;2091861;83;27683;-61
2021/08/15 12:49:44;;;;;;;4.90;4.20;;;;;;;31.17;35.56;100013.36;2092151;85;29053;-61
2021/08/15 12:53:16;;;;;;;4.47;3.98;;;;;;;31.24;35.06;100010.56;2092082;85;31883;-61
2021/08/15 12:56:19;;;;;;;3.60;3.30;;;;;;;31.22;34.90;100009.41;2072646;85;34280;-61
2021/08/15 12:59:21;;;;;;;5.28;3.90;;;;;;;31.16;35.19;100011.14;2092987;84;29322;-61
2021/08/15 13:02:22;;;;;;;4.58;3.72;;;;;;;31.14;35.24;100009.64;2092627;83;27716;-62
2021/08/15 13:05:28;;;;;;;5.60;3.72;;;;;;;31.16;35.21;100002.84;2094266;84;29934;-60
2021/08/15 13:08:31;;;;;;;7.20;4.25;;;;;;;31.18;35.23;100004.86;2094535;85;31410;-61
2021/08/15 13:11:32;;;;;;;7.67;4.25;;;;;;;31.16;35.10;99994.53;2073808;84;33351;-61
2021/08/15 13:14:37;;;;;;;4.92;4.33;;;;;;;31.13;35.35;99996.84;2075674;85;30612;-61
2021/08/15 13:17:39;;;;;;;5.83;5.20;;;;;;;31.10;35.18;99990.39;2076041;84;27830;-60
2021/08/15 13:20:40;;;;;;;4.80;3.90;;;;;;;31.07;35.24;99989.75;2075656;85;28651;-61
2021/08/15 13:23:42;;;;;;;7.22;4.75;;;;;;;31.04;34.99;99990.70;2075700;85;32285;-61
2021/08/15 13:26:44;;;;;;;5.53;4.67;;;;;;;30.88;34.86;99979.06;2077572;84;34109;-63
2021/08/15 13:29:46;;;;;;;5.92;4.42;;;;;;;30.83;35.32;99970.59;2076894;84;29857;-61
2021/08/15 13:32:49;;;;;;;7.53;4.53;;;;;;;30.78;35.39;99971.77;2068770;85;28048;-61
2021/08/15 13:35:52;;;;;;;6.22;3.92;;;;;;;30.74;35.52;99967.22;2064954;85;30133;-61
2021/08/15 13:38:53;;;;;;;7.80;4.75;;;;;;;30.64;35.47;99974.27;2083912;84;32208;-61
2021/08/15 13:41:57;;;;;;;6.00;4.70;;;;;;;30.51;35.44;99967.67;2097342;83;33493;-62
2021/08/15 13:44:59;;;;;;;7.85;5.10;;;;;;;30.42;35.66;99967.06;2088177;84;29336;-61
2021/08/15 13:48:01;;;;;;;5.53;4.30;;;;;;;30.34;35.50;99962.29;2053639;85;28124;-61
2021/08/15 13:51:05;;;;;;;6.85;4.10;;;;;;;30.24;35.48;99959.95;2071064;84;29166;-61
2021/08/15 13:54:10;;;;;;;7.10;4.37;;;;;;;30.18;35.76;99958.91;2072109;85;31886;-61
2021/08/15 13:57:12;;;;;;;4.95;4.37;;;;;;;30.08;35.80;99951.05;2070324;84;33626;-62
2021/08/15 14:00:16;;;;;;;7.12;4.53;;;;;;;30.02;36.07;99954.66;2078591;84;31504;-61
2021/08/15 14:03:21;;;;;;;5.30;4.00;;;;;;;29.96;36.30;99949.45;2094036;84;27705;-60
2021/08/15 14:06:23;;;;;;;4.75;3.90;;;;;;;29.95;36.48;99944.99;2098663;84;29893;-61